Time;durP1;ratioP1;P1;durP2;ratioP2;P2;SDS_P1;SDS_P2;PMS_P1;PMS_P2;Temp;Humidity;BMP_temperature;BMP_pressure;BME280_temperature;BME280_humidity;BME280_pressure;Samples;Min_cycle;Max_cycle;Signal;HPM_P1;HPM_P2
2021/09/18 00:00:24;;;;;;;7.57;5.97;;;11.40;99.90;;;;;;4954441;28;20035;-72
2021/09/18 00:02:50;;;;;;;8.35;5.57;;;11.30;99.90;;;;;;4955630;28;20039;-72
2021/09/18 00:05:16;;;;;;;8.38;5.95;;;11.30;99.90;;;;;;4938213;29;20034;-72
2021/09/18 00:07:42;;;;;;;10.40;5.63;;;11.20;99.90;;;;;;4954896;28;20059;-72
2021/09/18 00:10:09;;;;;;;8.45;6.07;;;11.20;99.90;;;;;;4954239;28;20043;-72
2021/09/18 00:12:36;;;;;;;8.27;6.55;;;11.20;99.90;;;;;;4970163;28;20034;-73
2021/09/18 00:15:03;;;;;;;7.95;5.78;;;11.10;99.90;;;;;;4958783;28;20038;-73
2021/09/18 00:17:29;;;;;;;7.72;5.82;;;11.10;99.90;;;;;;4954845;28;20047;-72
2021/09/18 00:19:55;;;;;;;7.03;5.45;;;11.00;99.90;;;;;;4966495;28;20065;-73
2021/09/18 00:22:22;;;;;;;9.80;5.28;;;10.90;99.90;;;;;;4952703;28;20488;-73
2021/09/18 00:24:48;;;;;;;9.02;5.53;;;10.90;99.90;;;;;;4955187;28;20046;-72
2021/09/18 00:27:14;;;;;;;8.85;5.88;;;10.90;99.90;;;;;;4953561;28;20035;-72
2021/09/18 00:29:40;;;;;;;6.93;5.25;;;10.90;99.90;;;;;;4954792;28;20050;-73
2021/09/18 00:32:07;;;;;;;9.15;5.38;;;10.90;99.90;;;;;;4955221;28;20464;-72
2021/09/18 00:34:33;;;;;;;8.13;5.50;;;10.90;99.90;;;;;;4954647;28;20034;-73
2021/09/18 00:36:59;;;;;;;8.88;6.10;;;10.90;99.90;;;;;;4954668;28;20047;-73
2021/09/18 00:39:25;;;;;;;7.40;5.03;;;10.90;99.90;;;;;;4954596;28;20039;-72
2021/09/18 00:41:51;;;;;;;9.07;5.13;;;10.90;99.90;;;;;;4955020;28;20047;-72
2021/09/18 00:44:19;;;;;;;8.35;6.18;;;10.80;99.90;;;;;;4953518;28;20047;-73
2021/09/18 00:46:52;;;;;;;7.75;6.22;;;10.70;99.90;;;;;;4955099;28;20035;-73
2021/09/18 00:49:19;;;;;;;9.05;5.30;;;10.70;99.90;;;;;;4954710;28;20038;-73
2021/09/18 00:51:47;;;;;;;9.05;5.32;;;10.60;99.90;;;;;;4954351;28;20054;-73
2021/09/18 00:54:14;;;;;;;8.48;6.70;;;10.60;99.90;;;;;;4933259;29;20044;-73
2021/09/18 00:56:42;;;;;;;8.48;6.43;;;10.60;99.90;;;;;;4931826;29;20032;-73
2021/09/18 00:59:10;;;;;;;9.30;6.97;;;10.60;99.90;;;;;;4922765;29;20032;-72
2021/09/18 01:01:36;;;;;;;10.85;7.03;;;10.70;99.90;;;;;;4948316;29;20027;-71
2021/09/18 01:04:03;;;;;;;9.30;6.45;;;10.60;99.90;;;;;;4933969;29;20485;-72
2021/09/18 01:06:29;;;;;;;9.68;6.78;;;10.70;99.90;;;;;;4934045;29;20047;-72
2021/09/18 01:09:00;;;;;;;9.93;7.38;;;10.80;99.90;;;;;;4934769;29;20036;-72
2021/09/18 01:11:26;;;;;;;;;;;10.80;99.90;;;;;;4933667;29;20027;-72
2021/09/18 01:13:52;;;;;;;9.52;6.70;;;10.90;99.90;;;;;;4934276;29;19911;-72
2021/09/18 01:16:20;;;;;;;9.60;6.90;;;10.90;99.90;;;;;;4933877;29;20035;-72
2021/09/18 01:18:46;;;;;;;8.45;6.25;;;10.90;99.90;;;;;;4938353;29;20048;-72
2021/09/18 01:21:13;;;;;;;9.63;7.13;;;10.90;99.90;;;;;;4927974;29;20054;-73
2021/09/18 01:23:39;;;;;;;10.15;6.72;;;10.90;99.90;;;;;;4932720;29;20035;-73
2021/09/18 01:26:08;;;;;;;11.55;8.13;;;10.80;99.90;;;;;;4933978;29;20473;-72
2021/09/18 01:28:35;;;;;;;9.20;6.50;;;10.80;99.90;;;;;;4933336;29;20043;-71
2021/09/18 01:31:01;;;;;;;8.02;6.10;;;10.80;99.90;;;;;;4925634;29;20043;-71
2021/09/18 01:33:27;;;;;;;7.22;5.72;;;10.70;99.90;;;;;;4933581;29;20035;-71
2021/09/18 01:35:54;;;;;;;8.55;5.90;;;10.50;99.90;;;;;;4934219;29;20039;-72
2021/09/18 01:38:20;;;;;;;9.10;6.28;;;10.50;99.90;;;;;;4923945;29;20044;-71
2021/09/18 01:40:47;;;;;;;9.60;5.95;;;10.50;99.90;;;;;;4934914;29;20042;-71
2021/09/18 01:43:14;;;;;;;8.65;6.38;;;10.40;99.90;;;;;;4917625;29;20092;-72
2021/09/18 01:45:41;;;;;;;8.02;6.15;;;10.40;99.90;;;;;;4931281;29;20023;-72
2021/09/18 01:48:13;;;;;;;8.35;6.15;;;10.20;99.90;;;;;;4915925;29;20137;-72
2021/09/18 01:53:13;;;;;;;9.93;5.80;;;10.10;99.90;;;;;;4926235;29;20044;-72
2021/09/18 01:55:41;;;;;;;12.90;6.50;;;10.00;99.90;;;;;;4950670;28;20055;-72
2021/09/18 01:58:08;;;;;;;9.15;5.97;;;9.90;99.90;;;;;;4954056;28;20031;-72
2021/09/18 02:00:40;;;;;;;8.52;6.35;;;9.90;99.90;;;;;;4952993;28;20417;-72
2021/09/18 02:03:07;;;;;;;9.25;6.45;;;9.80;99.90;;;;;;4953496;28;20405;-72
2021/09/18 02:05:33;;;;;;;9.65;6.82;;;9.80;99.90;;;;;;4953286;28;20031;-71
2021/09/18 02:08:00;;;;;;;8.65;6.07;;;9.90;99.90;;;;;;4952700;28;20047;-71
2021/09/18 02:10:28;;;;;;;10.55;7.10;;;10.00;99.90;;;;;;4953545;28;20476;-72
2021/09/18 02:12:56;;;;;;;15.30;7.22;;;10.20;99.90;;;;;;4954133;28;20043;-72
2021/09/18 02:15:23;;;;;;;10.70;6.82;;;10.30;99.90;;;;;;4953486;28;20062;-73
2021/09/18 02:17:52;;;;;;;10.02;7.20;;;10.30;99.90;;;;;;4953091;28;20039;-72
2021/09/18 02:20:20;;;;;;;10.85;7.90;;;10.30;99.90;;;;;;4953357;28;20048;-72
2021/09/18 02:22:47;;;;;;;10.82;6.43;;;10.30;99.90;;;;;;4954252;28;20031;-72
2021/09/18 02:25:15;;;;;;;11.18;6.55;;;10.30;99.90;;;;;;4956724;28;20035;-72
2021/09/18 02:27:42;;;;;;;9.20;6.78;;;10.30;99.90;;;;;;4956690;28;21603;-72
2021/09/18 02:30:13;;;;;;;9.25;6.07;;;10.30;99.90;;;;;;4956981;28;20035;-72
2021/09/18 02:32:39;;;;;;;;;;;10.20;99.90;;;;;;4939829;29;20035;-72
2021/09/18 02:35:08;;;;;;;9.60;7.43;;;10.20;99.90;;;;;;4955868;28;19910;-72
2021/09/18 02:37:35;;;;;;;7.85;5.78;;;10.10;99.90;;;;;;4956261;28;20047;-73
2021/09/18 02:40:04;;;;;;;8.57;6.25;;;10.00;99.90;;;;;;4958472;29;20035;-72
2021/09/18 02:42:31;;;;;;;7.55;5.50;;;10.00;99.90;;;;;;4959996;28;20042;-72
2021/09/18 02:44:57;;;;;;;9.98;6.55;;;9.90;99.90;;;;;;4957513;28;20416;-72
2021/09/18 02:47:23;;;;;;;7.95;5.38;;;10.00;99.90;;;;;;4956808;28;20042;-72
2021/09/18 02:49:49;;;;;;;8.93;6.68;;;9.90;99.90;;;;;;4959442;28;20031;-72
2021/09/18 02:52:16;;;;;;;11.43;6.85;;;9.80;99.90;;;;;;4967965;28;20036;-72
2021/09/18 02:54:42;;;;;;;8.57;6.07;;;9.80;99.90;;;;;;4958272;28;20517;-73
2021/09/18 02:57:08;;;;;;;11.02;7.38;;;9.80;99.90;;;;;;4956913;28;20039;-72
2021/09/18 02:59:34;;;;;;;9.32;7.28;;;9.90;99.90;;;;;;4956118;28;20031;-73
2021/09/18 03:02:01;;;;;;;9.43;6.88;;;9.90;99.90;;;;;;4956560;28;20031;-72
2021/09/18 03:04:27;;;;;;;11.80;7.43;;;9.90;99.90;;;;;;4955952;28;20028;-73
2021/09/18 03:06:54;;;;;;;10.98;6.90;;;9.90;99.90;;;;;;4956580;28;20070;-73
2021/09/18 03:09:20;;;;;;;12.50;7.78;;;10.00;99.90;;;;;;4954286;28;20066;-72
2021/09/18 03:11:46;;;;;;;9.80;6.63;;;10.10;99.90;;;;;;4956161;28;20039;-73
2021/09/18 03:14:12;;;;;;;9.73;6.80;;;9.80;99.90;;;;;;4956274;28;20047;-73
2021/09/18 03:16:38;;;;;;;9.90;6.82;;;9.70;99.90;;;;;;4957031;28;20031;-73
2021/09/18 03:19:04;;;;;;;10.18;6.80;;;9.70;99.90;;;;;;4956563;28;20047;-73
2021/09/18 03:21:31;;;;;;;8.70;6.85;;;9.70;99.90;;;;;;4958745;28;20633;-73
2021/09/18 03:23:57;;;;;;;9.93;6.70;;;9.70;99.90;;;;;;4962148;28;20042;-73
2021/09/18 03:26:23;;;;;;;12.50;6.32;;;9.50;99.90;;;;;;4958038;28;20054;-72
2021/09/18 03:28:50;;;;;;;9.13;6.47;;;9.40;99.90;;;;;;4956332;29;20366;-73
2021/09/18 03:31:17;;;;;;;10.25;6.03;;;9.40;99.90;;;;;;4955953;28;20390;-72
2021/09/18 03:33:44;;;;;;;10.98;7.43;;;9.40;99.90;;;;;;4956040;28;20493;-72
2021/09/18 03:36:11;;;;;;;10.85;7.82;;;9.40;99.90;;;;;;4954666;28;20477;-72
2021/09/18 03:38:37;;;;;;;10.93;7.32;;;9.40;99.90;;;;;;4959065;28;20047;-72
2021/09/18 03:41:03;;;;;;;14.27;7.85;;;9.50;99.90;;;;;;4964850;28;20365;-72
2021/09/18 03:43:30;;;;;;;11.35;7.47;;;9.60;99.90;;;;;;4955306;28;20039;-73
2021/09/18 03:45:56;;;;;;;13.38;8.15;;;9.60;99.90;;;;;;4955606;28;20039;-72
2021/09/18 03:48:23;;;;;;;12.68;7.53;;;9.60;99.90;;;;;;4955319;28;20043;-72
2021/09/18 03:50:49;;;;;;;8.60;6.60;;;9.50;99.90;;;;;;4955464;28;20031;-72
2021/09/18 03:53:15;;;;;;;11.07;7.03;;;9.40;99.90;;;;;;4955123;28;20035;-72
2021/09/18 03:55:41;;;;;;;9.82;7.13;;;9.40;99.90;;;;;;4955322;28;20496;-72
2021/09/18 03:58:07;;;;;;;11.25;8.15;;;9.50;99.90;;;;;;4955308;28;20043;-73
2021/09/18 04:00:34;;;;;;;9.95;6.47;;;9.50;99.90;;;;;;4955360;28;20046;-73
2021/09/18 04:03:00;;;;;;;9.32;6.82;;;9.50;99.90;;;;;;4954990;28;20027;-73
2021/09/18 04:05:26;;;;;;;11.15;7.13;;;9.40;99.90;;;;;;4954952;28;20381;-73
2021/09/18 04:07:52;;;;;;;14.43;7.38;;;9.30;99.90;;;;;;4955117;28;20050;-73
2021/09/18 04:10:19;;;;;;;10.43;6.78;;;9.20;99.90;;;;;;4955362;28;20031;-73
2021/09/18 04:12:45;;;;;;;10.18;6.72;;;9.10;99.90;;;;;;4955555;28;20051;-72
2021/09/18 04:15:11;;;;;;;11.38;6.38;;;9.10;99.90;;;;;;4955117;28;20484;-72
2021/09/18 04:17:37;;;;;;;12.10;7.50;;;9.10;99.90;;;;;;4945988;29;20062;-72
2021/09/18 04:20:05;;;;;;;10.68;7.22;;;9.10;99.90;;;;;;4954538;28;20055;-72
2021/09/18 04:22:31;;;;;;;19.02;11.82;;;9.00;99.90;;;;;;4954895;28;20034;-72
2021/09/18 04:24:58;;;;;;;21.70;12.70;;;9.00;99.90;;;;;;4954848;28;20046;-73
2021/09/18 04:27:24;;;;;;;30.77;15.23;;;9.00;99.90;;;;;;4952968;28;20043;-72
2021/09/18 04:29:50;;;;;;;21.48;11.70;;;9.00;99.90;;;;;;4955325;28;20465;-71
2021/09/18 04:32:16;;;;;;;23.55;13.07;;;9.00;99.90;;;;;;4955262;28;20035;-73
2021/09/18 04:34:43;;;;;;;21.08;12.23;;;9.10;99.90;;;;;;4954352;28;20059;-73
2021/09/18 04:37:09;;;;;;;25.17;12.48;;;9.10;99.90;;;;;;4954473;28;20042;-73
2021/09/18 04:39:36;;;;;;;27.67;14.48;;;9.20;99.90;;;;;;4954254;28;20039;-72
2021/09/18 04:42:02;;;;;;;28.50;14.90;;;9.30;99.90;;;;;;4954720;28;20044;-71
2021/09/18 04:44:28;;;;;;;27.92;14.13;;;9.20;99.90;;;;;;4954276;28;20038;-72
2021/09/18 04:46:54;;;;;;;29.17;15.15;;;9.20;99.90;;;;;;4954341;28;20110;-73
2021/09/18 04:49:21;;;;;;;22.90;11.77;;;9.10;99.90;;;;;;4954367;28;20046;-73
2021/09/18 04:51:47;;;;;;;20.08;12.25;;;8.90;99.90;;;;;;4954397;28;20031;-74
2021/09/18 04:54:13;;;;;;;19.55;10.35;;;8.80;99.90;;;;;;4954341;28;20054;-73
2021/09/18 04:56:39;;;;;;;18.35;11.63;;;8.80;99.90;;;;;;4953977;29;20054;-73
2021/09/18 04:59:06;;;;;;;21.63;11.95;;;8.70;99.90;;;;;;4954392;28;20042;-73
2021/09/18 05:01:32;;;;;;;20.05;11.52;;;8.70;99.90;;;;;;4954022;28;20031;-72
2021/09/18 05:03:58;;;;;;;20.33;11.88;;;8.80;99.90;;;;;;4965892;28;20559;-72
2021/09/18 05:06:24;;;;;;;18.35;10.88;;;8.80;99.90;;;;;;4963576;28;20492;-72
2021/09/18 05:08:50;;;;;;;21.50;11.93;;;8.80;99.90;;;;;;4954099;28;20035;-72
2021/09/18 05:11:17;;;;;;;19.30;12.02;;;8.90;99.90;;;;;;4954363;28;20473;-73
2021/09/18 05:13:43;;;;;;;21.67;13.40;;;8.90;99.90;;;;;;4953278;28;20050;-73
2021/09/18 05:16:09;;;;;;;26.15;12.77;;;9.10;99.90;;;;;;4954119;28;20035;-73
2021/09/18 05:18:35;;;;;;;21.55;13.48;;;9.20;99.90;;;;;;4953657;28;20038;-73
2021/09/18 05:21:01;;;;;;;24.77;13.52;;;9.10;99.90;;;;;;4954223;28;20107;-73
2021/09/18 05:23:28;;;;;;;27.52;14.75;;;9.20;99.90;;;;;;4954065;28;20034;-72
2021/09/18 05:25:54;;;;;;;29.38;15.00;;;9.30;99.90;;;;;;4954009;28;20031;-73
2021/09/18 05:28:20;;;;;;;26.75;14.43;;;9.40;99.90;;;;;;4955028;28;20058;-72
2021/09/18 05:30:46;;;;;;;26.60;13.77;;;9.40;99.90;;;;;;4967224;28;20035;-73
2021/09/18 05:33:13;;;;;;;24.80;14.20;;;9.40;99.90;;;;;;4954484;28;20035;-72
2021/09/18 05:35:39;;;;;;;27.00;14.65;;;9.50;99.90;;;;;;4953431;28;20035;-73
2021/09/18 05:38:05;;;;;;;21.92;13.10;;;9.50;99.90;;;;;;4953502;28;20039;-73
2021/09/18 05:40:31;;;;;;;19.50;12.15;;;9.40;99.90;;;;;;4953494;28;20043;-72
2021/09/18 05:42:58;;;;;;;23.40;11.52;;;9.30;99.90;;;;;;4953681;28;20050;-74
2021/09/18 05:45:24;;;;;;;20.63;11.52;;;9.40;99.90;;;;;;4953934;28;20047;-72
2021/09/18 05:47:50;;;;;;;18.13;11.50;;;9.50;99.90;;;;;;4957291;28;20032;-71
2021/09/18 05:50:16;;;;;;;20.88;12.18;;;9.60;99.90;;;;;;4967625;28;20035;-72
2021/09/18 05:52:42;;;;;;;17.30;11.43;;;9.70;99.90;;;;;;4953401;28;20060;-72
2021/09/18 05:55:09;;;;;;;17.90;11.50;;;10.10;99.90;;;;;;4953708;28;20069;-72
2021/09/18 05:57:36;;;;;;;15.32;10.95;;;10.60;99.90;;;;;;4952637;28;20389;-72
2021/09/18 06:00:04;;;;;;;12.45;8.63;;;10.80;99.90;;;;;;4956179;28;20074;-73
2021/09/18 06:02:30;;;;;;;9.65;7.40;;;11.20;99.90;;;;;;4956152;28;20032;-72
2021/09/18 06:04:56;;;;;;;10.27;7.07;;;11.60;99.90;;;;;;4956441;29;20111;-73
2021/09/18 06:07:22;;;;;;;6.68;5.85;;;11.80;99.90;;;;;;4956179;28;20043;-72
2021/09/18 06:09:49;;;;;;;6.47;4.95;;;11.90;99.90;;;;;;4956482;28;20031;-73
2021/09/18 06:12:15;;;;;;;7.05;5.03;;;11.90;99.90;;;;;;4956069;28;20027;-74
2021/09/18 06:14:41;;;;;;;5.63;4.72;;;11.80;99.90;;;;;;4955634;28;20269;-73
2021/09/18 06:17:07;;;;;;;5.00;4.07;;;12.30;99.90;;;;;;4956225;28;20035;-73
2021/09/18 06:19:33;;;;;;;5.05;3.88;;;13.00;99.90;;;;;;4955452;28;20046;-73
2021/09/18 06:21:59;;;;;;;4.90;3.70;;;13.40;99.90;;;;;;4966379;28;20057;-73
2021/09/18 06:24:26;;;;;;;4.80;4.00;;;13.50;99.90;;;;;;4962402;28;20035;-73
2021/09/18 06:26:52;;;;;;;5.38;3.78;;;13.50;99.90;;;;;;4955852;28;20035;-73
2021/09/18 06:29:18;;;;;;;4.45;3.63;;;13.70;99.90;;;;;;4955330;28;20411;-72
2021/09/18 06:31:44;;;;;;;4.20;3.80;;;13.80;99.90;;;;;;4955323;28;20043;-73
2021/09/18 06:34:10;;;;;;;4.40;3.45;;;14.00;99.90;;;;;;4955987;28;20035;-73
2021/09/18 06:36:37;;;;;;;4.57;3.42;;;14.30;99.90;;;;;;4968464;28;20031;-73
2021/09/18 06:39:03;;;;;;;8.88;4.13;;;14.70;99.90;;;;;;4962936;28;20035;-80
2021/09/18 06:41:29;;;;;;;3.92;3.22;;;15.20;99.90;;;;;;4955364;28;20043;-74
2021/09/18 06:43:55;;;;;;;6.60;3.90;;;15.50;99.20;;;;;;4955937;28;20393;-74
2021/09/18 06:46:22;;;;;;;4.40;3.55;;;16.00;98.50;;;;;;4955117;28;20038;-73
2021/09/18 06:48:48;;;;;;;3.97;3.13;;;17.40;93.70;;;;;;4956728;28;20147;-72
2021/09/18 06:51:15;;;;;;;3.97;3.28;;;17.90;90.30;;;;;;4972327;28;20035;-74
2021/09/18 06:53:42;;;;;;;4.38;3.67;;;17.80;90.00;;;;;;4921458;28;1124247;-75
2021/09/18 06:56:08;;;;;;;5.00;3.75;;;17.40;89.70;;;;;;4960492;28;20039;-76
2021/09/18 06:58:34;;;;;;;4.20;3.28;;;17.80;90.30;;;;;;4955925;28;20051;-78
2021/09/18 07:01:00;;;;;;;5.65;4.53;;;18.80;87.30;;;;;;4957200;28;20047;-76
2021/09/18 07:03:27;;;;;;;4.57;3.88;;;20.00;80.40;;;;;;4969715;28;20045;-78
2021/09/18 07:05:53;;;;;;;5.68;4.93;;;20.50;76.20;;;;;;4982782;28;20050;-79
2021/09/18 07:08:19;;;;;;;6.28;4.50;;;20.60;76.30;;;;;;4956943;28;20047;-79
2021/09/18 07:10:45;;;;;;;5.32;4.82;;;20.70;74.70;;;;;;4957275;28;20035;-79
2021/09/18 07:13:11;;;;;;;4.60;4.10;;;18.90;78.40;;;;;;4957720;28;20473;-80
2021/09/18 07:15:38;;;;;;;5.75;4.45;;;17.50;84.70;;;;;;4963025;28;20045;-75
2021/09/18 07:18:04;;;;;;;5.05;4.55;;;18.00;85.70;;;;;;4971797;28;20389;-80
2021/09/18 07:20:30;;;;;;;5.38;4.57;;;18.40;83.00;;;;;;4957917;28;20039;-78
2021/09/18 07:22:56;;;;;;;5.10;4.60;;;17.90;86.70;;;;;;4958164;28;20027;-78
2021/09/18 07:25:23;;;;;;;6.78;5.15;;;18.20;83.90;;;;;;4957666;28;20397;-75
2021/09/18 07:27:50;;;;;;;6.13;4.95;;;18.00;84.70;;;;;;4958009;28;20058;-79
2021/09/18 07:30:16;;;;;;;5.78;4.68;;;17.30;88.90;;;;;;4958347;28;20469;-79
2021/09/18 07:32:42;;;;;;;5.00;4.13;;;17.60;89.40;;;;;;4960654;28;20043;-80
2021/09/18 07:35:08;;;;;;;6.00;4.88;;;18.30;86.60;;;;;;4962166;29;20042;-79
2021/09/18 07:37:35;;;;;;;5.05;4.47;;;18.40;85.90;;;;;;4957512;28;20043;-79
2021/09/18 07:40:03;;;;;;;6.35;5.22;;;17.90;87.60;;;;;;4958050;28;20050;-80
2021/09/18 07:42:30;;;;;;;6.38;5.18;;;18.30;86.40;;;;;;4942336;29;20031;-80
2021/09/18 07:44:56;;;;;;;6.07;4.75;;;17.90;88.10;;;;;;4960481;28;20046;-80
2021/09/18 07:47:22;;;;;;;6.45;5.68;;;17.50;90.30;;;;;;4960500;28;20027;-79
2021/09/18 07:49:48;;;;;;;6.40;5.43;;;17.70;90.60;;;;;;4963434;28;20058;-80
2021/09/18 07:52:16;;;;;;;7.05;5.43;;;17.90;89.50;;;;;;4974626;28;20049;-81
2021/09/18 07:54:43;;;;;;;9.15;6.78;;;18.20;88.20;;;;;;4968402;28;20119;-79
2021/09/18 07:57:09;;;;;;;7.35;6.18;;;18.50;86.40;;;;;;4959701;28;20039;-81
2021/09/18 07:59:35;;;;;;;7.07;5.97;;;19.00;84.30;;;;;;4960720;28;20047;-76
2021/09/18 08:02:02;;;;;;;7.28;6.43;;;19.10;84.40;;;;;;4954972;28;20043;-80
2021/09/18 08:04:28;;;;;;;8.45;6.22;;;19.30;83.50;;;;;;4955707;28;20035;-80
2021/09/18 08:06:55;;;;;;;11.20;6.65;;;18.90;85.10;;;;;;4958088;28;20268;-79
2021/09/18 08:09:21;;;;;;;9.25;6.53;;;19.40;83.00;;;;;;4975144;28;20043;-79
2021/09/18 08:11:49;;;;;;;8.13;7.18;;;20.00;82.90;;;;;;4956126;28;20035;-78
2021/09/18 08:14:15;;;;;;;9.10;7.22;;;19.60;83.60;;;;;;4955860;28;20050;-77
2021/09/18 08:16:41;;;;;;;9.95;6.55;;;18.30;87.80;;;;;;4954897;28;20035;-76
2021/09/18 08:19:07;;;;;;;9.32;7.60;;;18.40;88.00;;;;;;4954748;28;20050;-77
2021/09/18 08:21:34;;;;;;;11.40;8.57;;;19.00;86.90;;;;;;4957405;28;20046;-77
2021/09/18 08:24:00;;;;;;;10.85;8.80;;;18.70;87.20;;;;;;4972862;28;20035;-78
2021/09/18 08:26:32;;;;;;;9.68;8.48;;;18.40;88.20;;;;;;4955574;28;20532;-77
2021/09/18 08:28:59;;;;;;;8.48;7.30;;;18.20;88.70;;;;;;4972993;28;20035;-79
2021/09/18 08:31:26;;;;;;;8.50;7.53;;;19.50;86.40;;;;;;4972522;28;20035;-75
2021/09/18 08:33:53;;;;;;;9.05;7.47;;;20.30;82.70;;;;;;4972254;28;20034;-77
2021/09/18 08:36:19;;;;;;;9.88;8.45;;;20.70;81.10;;;;;;4970753;28;20043;-77
2021/09/18 08:38:45;;;;;;;8.07;7.28;;;21.40;77.30;;;;;;4969888;28;20047;-78
2021/09/18 08:41:12;;;;;;;9.23;7.93;;;21.20;77.80;;;;;;4960419;28;20038;-79
2021/09/18 08:43:38;;;;;;;8.75;7.63;;;21.30;77.80;;;;;;4972577;28;20042;-78
2021/09/18 08:46:05;;;;;;;11.15;8.07;;;21.50;77.20;;;;;;4963927;28;20477;-79
2021/09/18 08:48:33;;;;;;;9.45;7.88;;;20.30;80.20;;;;;;4955691;28;20043;-78
2021/09/18 08:51:00;;;;;;;9.77;8.13;;;19.70;82.70;;;;;;4956960;28;20473;-79
2021/09/18 08:53:26;;;;;;;10.45;8.25;;;20.20;81.60;;;;;;4974090;28;20027;-79
2021/09/18 08:55:54;;;;;;;9.40;8.30;;;20.90;79.40;;;;;;4967853;28;20061;-76
2021/09/18 08:58:21;;;;;;;8.77;7.75;;;20.10;81.30;;;;;;4972662;28;20037;-77
2021/09/18 09:00:49;;;;;;;8.68;7.75;;;19.50;85.80;;;;;;4966355;28;20050;-77
2021/09/18 09:03:32;;;;;;;9.43;7.53;;;19.90;83.70;;;;;;4937527;29;20046;-76
2021/09/18 09:06:05;;;;;;;13.23;7.47;;;20.60;80.70;;;;;;4959201;28;20039;-75
2021/09/18 09:08:32;;;;;;;8.70;7.50;;;20.70;79.40;;;;;;4954350;28;20381;-77
2021/09/18 09:11:12;;;;;;;8.02;5.97;;;21.00;78.40;;;;;;4967005;28;20031;-77
2021/09/18 09:14:11;;;;;;;10.90;7.63;;;20.50;80.00;;;;;;4954339;28;20035;-75
2021/09/18 09:17:06;;;;;;;10.90;7.60;;;19.30;84.10;;;;;;4936004;28;20051;-75
2021/09/18 09:19:41;;;;;;;11.32;6.75;;;19.10;85.00;;;;;;4953713;28;20045;-74
2021/09/18 09:22:07;;;;;;;12.85;6.80;;;19.60;84.00;;;;;;4954352;28;20027;-75
2021/09/18 09:24:35;;;;;;;10.93;7.22;;;19.50;84.30;;;;;;4954845;28;20039;-78
2021/09/18 09:27:12;;;;;;;12.07;7.40;;;19.90;83.80;;;;;;4955543;28;20469;-79
2021/09/18 09:29:57;;;;;;;9.80;6.32;;;20.60;81.70;;;;;;4955004;28;20042;-75
2021/09/18 09:32:38;;;;;;;11.82;6.95;;;20.80;80.70;;;;;;4954541;28;20039;-75
2021/09/18 09:35:13;;;;;;;10.20;6.80;;;21.20;79.20;;;;;;4958540;28;20043;-74
2021/09/18 09:37:50;;;;;;;9.52;6.82;;;20.50;81.30;;;;;;4958123;28;20035;-74
2021/09/18 09:40:34;;;;;;;10.10;6.72;;;20.70;78.70;;;;;;4963941;28;20053;-74
2021/09/18 09:43:00;;;;;;;8.88;6.70;;;21.20;77.00;;;;;;4975832;28;20038;-73
2021/09/18 09:45:26;;;;;;;9.85;7.07;;;21.10;76.70;;;;;;4976379;28;20142;-73
2021/09/18 09:48:04;;;;;;;8.68;6.97;;;20.90;77.00;;;;;;4957588;28;20058;-73
2021/09/18 09:50:31;;;;;;;8.50;6.72;;;20.40;77.70;;;;;;4957668;28;20046;-75
2021/09/18 09:52:58;;;;;;;7.28;6.05;;;20.20;78.90;;;;;;4958959;28;20038;-74
2021/09/18 09:55:25;;;;;;;8.98;6.35;;;20.00;79.20;;;;;;4956742;28;20047;-73
2021/09/18 09:58:03;;;;;;;9.25;5.53;;;19.70;78.50;;;;;;4957343;28;20042;-74
2021/09/18 10:00:38;;;;;;;7.15;5.95;;;19.80;78.80;;;;;;4957746;28;20047;-75
2021/09/18 10:03:05;;;;;;;9.00;5.88;;;20.30;77.50;;;;;;4958825;28;20039;-74
2021/09/18 10:05:32;;;;;;;7.40;6.00;;;20.20;77.60;;;;;;4956718;28;20562;-74
2021/09/18 10:08:02;;;;;;;8.13;6.00;;;20.30;79.80;;;;;;4968133;28;20050;-74
2021/09/18 10:10:29;;;;;;;8.43;6.00;;;20.30;76.20;;;;;;4951930;28;20035;-73
2021/09/18 10:12:56;;;;;;;7.88;5.97;;;20.10;76.80;;;;;;4961340;28;20031;-72
2021/09/18 10:15:26;;;;;;;7.53;5.57;;;20.00;77.00;;;;;;4957312;28;20038;-73
2021/09/18 10:17:58;;;;;;;9.30;6.05;;;20.20;77.40;;;;;;4957974;28;20042;-75
2021/09/18 10:25:39;;;;;;;7.45;5.35;;;20.30;77.20;;;;;;4957020;28;20393;-74
2021/09/18 10:28:11;;;;;;;6.65;4.93;;;20.00;77.10;;;;;;4957179;28;20031;-75
2021/09/18 10:30:59;;;;;;;5.90;4.60;;;20.20;78.80;;;;;;4957000;28;20055;-74
2021/09/18 10:33:37;;;;;;;6.95;4.95;;;20.80;78.10;;;;;;4957322;28;20054;-75
2021/09/18 10:36:06;;;;;;;6.68;4.60;;;21.20;75.20;;;;;;4956735;28;20042;-75
2021/09/18 10:38:36;;;;;;;7.35;4.60;;;21.40;75.30;;;;;;4968653;28;20154;-73
2021/09/18 10:41:38;;;;;;;6.03;4.25;;;21.10;73.20;;;;;;4960342;28;20052;-75
2021/09/18 10:44:05;;;;;;;5.68;4.35;;;20.80;72.20;;;;;;4955723;28;20032;-75
2021/09/18 10:46:37;;;;;;;6.13;4.78;;;20.80;71.80;;;;;;4956510;28;20027;-73
2021/09/18 10:49:03;;;;;;;7.18;5.07;;;20.70;71.10;;;;;;4960735;28;20060;-73
2021/09/18 10:51:35;;;;;;;6.32;4.63;;;20.60;69.70;;;;;;4974594;28;20031;-72
2021/09/18 10:54:03;;;;;;;6.10;4.60;;;20.70;69.80;;;;;;4974591;28;20046;-73
2021/09/18 10:56:59;;;;;;;6.03;4.32;;;20.70;71.10;;;;;;4974827;28;20035;-76
2021/09/18 10:59:40;;;;;;;7.70;5.38;;;20.90;71.90;;;;;;4970654;28;20035;-76
2021/09/18 11:02:32;;;;;;;7.63;4.80;;;21.10;69.90;;;;;;4976184;28;20503;-76
2021/09/18 11:05:07;;;;;;;6.68;5.15;;;21.00;69.60;;;;;;4963840;28;20035;-71
2021/09/18 11:07:39;;;;;;;4.63;3.95;;;21.00;68.90;;;;;;4964328;28;20035;-72
2021/09/18 11:10:30;;;;;;;6.25;4.72;;;21.00;68.90;;;;;;4966903;28;20039;-73
2021/09/18 11:13:08;;;;;;;8.00;4.20;;;21.20;67.30;;;;;;4954224;28;20114;-73
2021/09/18 11:16:04;;;;;;;9.07;5.15;;;21.20;68.70;;;;;;4956017;28;20031;-72
2021/09/18 11:18:36;;;;;;;5.18;3.92;;;21.40;66.70;;;;;;4949556;28;20043;-72
2021/09/18 11:21:14;;;;;;;5.90;4.15;;;21.40;67.00;;;;;;4955948;28;20047;-72
2021/09/18 11:23:49;;;;;;;4.97;3.85;;;21.40;66.10;;;;;;4955877;28;20038;-72
2021/09/18 11:26:53;;;;;;;4.85;3.58;;;21.60;66.10;;;;;;4955582;28;20031;-72
2021/09/18 11:29:29;;;;;;;4.05;3.38;;;21.70;66.30;;;;;;4956396;28;20035;-74
2021/09/18 11:31:58;;;;;;;5.65;3.97;;;22.00;65.90;;;;;;4956048;28;20035;-72
2021/09/18 11:34:29;;;;;;;5.28;4.63;;;21.80;66.00;;;;;;4955806;28;20031;-73
2021/09/18 11:36:57;;;;;;;5.28;4.40;;;21.70;68.20;;;;;;4956247;28;20051;-73
2021/09/18 11:39:40;;;;;;;4.13;3.58;;;22.10;68.20;;;;;;4955785;28;20066;-74
2021/09/18 11:42:19;;;;;;;4.72;3.60;;;22.10;67.00;;;;;;4961950;28;20050;-72
2021/09/18 11:44:48;;;;;;;5.35;3.80;;;22.10;67.70;;;;;;4964547;28;20051;-74
2021/09/18 11:47:21;;;;;;;4.63;4.13;;;22.30;67.70;;;;;;4955604;28;20027;-73
2021/09/18 11:49:47;;;;;;;4.78;3.55;;;22.10;65.90;;;;;;4955343;28;20039;-73
2021/09/18 11:52:14;;;;;;;5.63;4.40;;;21.80;64.80;;;;;;4958220;28;20027;-74
2021/09/18 11:54:40;;;;;;;4.43;3.65;;;21.90;66.00;;;;;;4959256;28;20051;-74
2021/09/18 11:57:18;;;;;;;4.43;3.25;;;21.60;66.90;;;;;;4957430;28;20377;-73
2021/09/18 11:59:45;;;;;;;5.60;3.95;;;21.70;67.80;;;;;;4949658;28;20404;-72
2021/09/18 12:02:11;;;;;;;4.53;3.80;;;22.00;65.90;;;;;;4977366;28;20495;-72
2021/09/18 12:04:43;;;;;;;5.15;3.85;;;22.10;66.40;;;;;;4976531;28;20047;-72
2021/09/18 12:07:11;;;;;;;5.20;4.13;;;22.30;63.60;;;;;;4965140;28;20038;-73
2021/09/18 12:09:38;;;;;;;5.15;4.30;;;22.50;64.60;;;;;;4981632;28;20526;-73
2021/09/18 12:12:04;;;;;;;7.00;4.28;;;22.20;65.50;;;;;;4982132;28;20045;-74
2021/09/18 12:14:38;;;;;;;5.45;3.85;;;22.40;65.80;;;;;;4967055;28;20093;-73
2021/09/18 12:17:19;;;;;;;3.80;2.90;;;22.40;66.20;;;;;;4956598;28;20040;-73
2021/09/18 12:19:46;;;;;;;4.85;4.10;;;22.40;65.70;;;;;;4956856;28;20073;-72
2021/09/18 12:22:14;;;;;;;4.72;3.85;;;22.30;63.80;;;;;;4956050;28;20389;-73
2021/09/18 12:24:45;;;;;;;6.15;4.78;;;22.00;64.70;;;;;;4955172;28;20046;-73
2021/09/18 12:27:29;;;;;;;5.72;4.30;;;21.60;65.80;;;;;;4955212;28;20461;-72
2021/09/18 12:30:14;;;;;;;5.05;4.07;;;21.20;66.30;;;;;;4955081;28;20488;-74
2021/09/18 12:32:41;;;;;;;6.05;5.38;;;21.10;67.10;;;;;;4954536;28;20027;-73
2021/09/18 12:35:10;;;;;;;6.30;5.35;;;21.20;67.50;;;;;;4954525;28;20469;-72
2021/09/18 12:37:41;;;;;;;5.75;4.72;;;21.40;65.40;;;;;;4954361;28;20043;-72
2021/09/18 12:40:20;;;;;;;5.60;4.57;;;21.80;65.30;;;;;;4954543;28;20039;-72
2021/09/18 12:43:12;;;;;;;5.22;4.10;;;21.90;64.70;;;;;;4953265;28;20039;-72
2021/09/18 12:45:39;;;;;;;6.82;5.10;;;22.20;65.00;;;;;;4950793;28;20039;-73
2021/09/18 12:48:23;;;;;;;5.57;4.35;;;22.40;64.50;;;;;;4955266;28;20035;-73
2021/09/18 12:51:01;;;;;;;6.18;4.55;;;22.60;65.40;;;;;;4969769;28;20380;-73
2021/09/18 12:53:33;;;;;;;5.13;4.13;;;23.20;64.20;;;;;;4972472;28;20034;-73
2021/09/18 12:56:31;;;;;;;4.30;3.72;;;22.90;62.10;;;;;;4969276;28;20043;-73
2021/09/18 12:59:04;;;;;;;5.35;4.43;;;23.00;61.80;;;;;;4972222;28;20362;-72
2021/09/18 13:01:41;;;;;;;7.55;4.15;;;22.70;62.80;;;;;;4960880;28;20046;-72